sensor_id;sensor_type;location;lat;lon;timestamp;P1;durP1;ratioP1;P2;durP2;ratioP2
77495;SDS011;66600;48.378;9.948;2023-06-26T00:02:23;9.32;;;6.00;;
77495;SDS011;66600;48.378;9.948;2023-06-26T00:04:48;10.20;;;6.38;;
77495;SDS011;66600;48.378;9.948;2023-06-26T00:07:13;9.90;;;6.40;;
77495;SDS011;66600;48.378;9.948;2023-06-26T00:09:39;9.15;;;6.60;;
77495;SDS011;66600;48.378;9.948;2023-06-26T00:12:04;11.13;;;6.78;;
77495;SDS011;66600;48.378;9.948;2023-06-26T00:14:30;8.75;;;6.10;;
77495;SDS011;66600;48.378;9.948;2023-06-26T00:16:55;8.80;;;6.03;;
77495;SDS011;66600;48.378;9.948;2023-06-26T00:19:20;9.80;;;6.28;;
77495;SDS011;66600;48.378;9.948;2023-06-26T00:21:46;9.10;;;6.05;;
77495;SDS011;66600;48.378;9.948;2023-06-26T00:24:16;9.00;;;6.38;;
77495;SDS011;66600;48.378;9.948;2023-06-26T00:26:41;9.50;;;6.38;;
77495;SDS011;66600;48.378;9.948;2023-06-26T00:29:07;9.13;;;6.05;;
77495;SDS011;66600;48.378;9.948;2023-06-26T00:31:32;9.88;;;5.90;;
77495;SDS011;66600;48.378;9.948;2023-06-26T00:33:59;9.07;;;5.97;;
77495;SDS011;66600;48.378;9.948;2023-06-26T00:36:25;9.25;;;6.22;;
77495;SDS011;66600;48.378;9.948;2023-06-26T00:38:51;10.68;;;6.80;;
77495;SDS011;66600;48.378;9.948;2023-06-26T00:41:17;10.75;;;6.45;;
77495;SDS011;66600;48.378;9.948;2023-06-26T00:43:42;11.23;;;6.70;;
77495;SDS011;66600;48.378;9.948;2023-06-26T00:46:08;10.05;;;5.97;;
77495;SDS011;66600;48.378;9.948;2023-06-26T00:48:35;8.73;;;6.20;;
77495;SDS011;66600;48.378;9.948;2023-06-26T00:51:01;11.27;;;6.60;;
77495;SDS011;66600;48.378;9.948;2023-06-26T00:53:27;9.57;;;6.35;;
77495;SDS011;66600;48.378;9.948;2023-06-26T00:55:53;10.05;;;5.85;;
77495;SDS011;66600;48.378;9.948;2023-06-26T00:58:19;10.38;;;5.85;;
77495;SDS011;66600;48.378;9.948;2023-06-26T01:00:46;10.85;;;6.35;;
77495;SDS011;66600;48.378;9.948;2023-06-26T01:03:12;9.68;;;6.38;;
77495;SDS011;66600;48.378;9.948;2023-06-26T01:05:37;9.60;;;6.15;;
77495;SDS011;66600;48.378;9.948;2023-06-26T01:08:03;8.85;;;6.47;;
77495;SDS011;66600;48.378;9.948;2023-06-26T01:10:30;9.18;;;6.75;;
77495;SDS011;66600;48.378;9.948;2023-06-26T01:12:56;10.13;;;6.72;;
77495;SDS011;66600;48.378;9.948;2023-06-26T01:15:31;10.10;;;6.80;;
77495;SDS011;66600;48.378;9.948;2023-06-26T01:17:57;10.73;;;6.93;;
77495;SDS011;66600;48.378;9.948;2023-06-26T01:20:24;10.85;;;6.70;;
77495;SDS011;66600;48.378;9.948;2023-06-26T01:22:58;9.02;;;6.30;;
77495;SDS011;66600;48.378;9.948;2023-06-26T01:28:22;10.35;;;6.78;;
77495;SDS011;66600;48.378;9.948;2023-06-26T01:30:49;11.05;;;7.13;;
77495;SDS011;66600;48.378;9.948;2023-06-26T01:33:16;12.23;;;7.82;;
77495;SDS011;66600;48.378;9.948;2023-06-26T01:35:42;12.38;;;7.60;;
77495;SDS011;66600;48.378;9.948;2023-06-26T01:40:40;11.00;;;7.53;;
77495;SDS011;66600;48.378;9.948;2023-06-26T01:43:06;11.82;;;7.13;;
77495;SDS011;66600;48.378;9.948;2023-06-26T01:45:41;13.27;;;7.85;;
77495;SDS011;66600;48.378;9.948;2023-06-26T01:48:07;11.38;;;7.75;;
77495;SDS011;66600;48.378;9.948;2023-06-26T01:50:35;11.43;;;7.70;;
77495;SDS011;66600;48.378;9.948;2023-06-26T01:53:12;10.95;;;7.50;;
77495;SDS011;66600;48.378;9.948;2023-06-26T01:58:15;12.25;;;7.53;;
77495;SDS011;66600;48.378;9.948;2023-06-26T02:00:42;12.98;;;7.70;;
77495;SDS011;66600;48.378;9.948;2023-06-26T02:03:08;11.88;;;8.20;;
77495;SDS011;66600;48.378;9.948;2023-06-26T02:05:33;12.43;;;7.95;;
77495;SDS011;66600;48.378;9.948;2023-06-26T02:07:59;13.18;;;9.18;;
77495;SDS011;66600;48.378;9.948;2023-06-26T02:10:26;13.45;;;8.73;;
77495;SDS011;66600;48.378;9.948;2023-06-26T02:12:51;13.23;;;8.57;;
77495;SDS011;66600;48.378;9.948;2023-06-26T02:15:17;15.18;;;9.02;;
77495;SDS011;66600;48.378;9.948;2023-06-26T02:17:42;15.07;;;9.80;;
77495;SDS011;66600;48.378;9.948;2023-06-26T02:20:07;14.32;;;9.60;;
77495;SDS011;66600;48.378;9.948;2023-06-26T02:22:35;15.20;;;9.20;;
77495;SDS011;66600;48.378;9.948;2023-06-26T02:25:00;14.85;;;9.40;;
77495;SDS011;66600;48.378;9.948;2023-06-26T02:27:26;14.02;;;9.00;;
77495;SDS011;66600;48.378;9.948;2023-06-26T02:29:51;15.55;;;9.05;;
77495;SDS011;66600;48.378;9.948;2023-06-26T02:32:17;13.25;;;9.10;;
77495;SDS011;66600;48.378;9.948;2023-06-26T02:34:42;15.65;;;9.98;;
77495;SDS011;66600;48.378;9.948;2023-06-26T02:37:07;16.67;;;10.23;;
77495;SDS011;66600;48.378;9.948;2023-06-26T02:39:33;16.90;;;10.68;;
77495;SDS011;66600;48.378;9.948;2023-06-26T02:42:00;17.40;;;10.38;;
77495;SDS011;66600;48.378;9.948;2023-06-26T02:44:25;15.13;;;10.30;;
77495;SDS011;66600;48.378;9.948;2023-06-26T02:46:50;15.95;;;10.48;;
77495;SDS011;66600;48.378;9.948;2023-06-26T02:49:16;16.63;;;10.45;;
77495;SDS011;66600;48.378;9.948;2023-06-26T02:51:41;16.30;;;10.40;;
77495;SDS011;66600;48.378;9.948;2023-06-26T02:54:06;15.95;;;10.10;;
77495;SDS011;66600;48.378;9.948;2023-06-26T02:56:32;16.88;;;10.57;;
77495;SDS011;66600;48.378;9.948;2023-06-26T02:58:57;15.48;;;10.13;;
77495;SDS011;66600;48.378;9.948;2023-06-26T03:01:23;15.63;;;10.10;;
77495;SDS011;66600;48.378;9.948;2023-06-26T03:03:48;14.57;;;9.77;;
77495;SDS011;66600;48.378;9.948;2023-06-26T03:06:14;15.23;;;9.88;;
77495;SDS011;66600;48.378;9.948;2023-06-26T03:08:40;16.23;;;9.82;;
77495;SDS011;66600;48.378;9.948;2023-06-26T03:11:06;18.00;;;10.95;;
77495;SDS011;66600;48.378;9.948;2023-06-26T03:13:33;15.32;;;10.15;;
77495;SDS011;66600;48.378;9.948;2023-06-26T03:15:59;14.77;;;9.60;;
77495;SDS011;66600;48.378;9.948;2023-06-26T03:18:25;18.10;;;10.32;;
77495;SDS011;66600;48.378;9.948;2023-06-26T03:20:51;14.02;;;9.95;;
77495;SDS011;66600;48.378;9.948;2023-06-26T03:23:19;17.02;;;10.32;;
77495;SDS011;66600;48.378;9.948;2023-06-26T03:25:45;16.30;;;10.27;;
77495;SDS011;66600;48.378;9.948;2023-06-26T03:28:10;17.10;;;10.88;;
77495;SDS011;66600;48.378;9.948;2023-06-26T03:30:36;15.38;;;9.90;;
77495;SDS011;66600;48.378;9.948;2023-06-26T03:33:01;14.95;;;9.75;;
77495;SDS011;66600;48.378;9.948;2023-06-26T03:35:26;15.77;;;9.90;;
77495;SDS011;66600;48.378;9.948;2023-06-26T03:37:52;14.50;;;9.38;;
77495;SDS011;66600;48.378;9.948;2023-06-26T03:40:17;15.80;;;9.20;;
77495;SDS011;66600;48.378;9.948;2023-06-26T03:42:42;17.58;;;9.95;;
77495;SDS011;66600;48.378;9.948;2023-06-26T03:45:07;13.90;;;9.15;;
77495;SDS011;66600;48.378;9.948;2023-06-26T03:47:33;13.93;;;9.30;;
77495;SDS011;66600;48.378;9.948;2023-06-26T03:49:58;15.30;;;9.80;;
77495;SDS011;66600;48.378;9.948;2023-06-26T03:52:24;17.13;;;10.07;;
77495;SDS011;66600;48.378;9.948;2023-06-26T03:54:49;18.38;;;10.40;;
77495;SDS011;66600;48.378;9.948;2023-06-26T03:57:15;15.60;;;10.20;;
77495;SDS011;66600;48.378;9.948;2023-06-26T03:59:40;15.40;;;10.35;;
77495;SDS011;66600;48.378;9.948;2023-06-26T04:02:05;15.75;;;9.82;;
77495;SDS011;66600;48.378;9.948;2023-06-26T04:04:30;15.55;;;10.15;;
77495;SDS011;66600;48.378;9.948;2023-06-26T04:06:56;15.07;;;10.25;;
77495;SDS011;66600;48.378;9.948;2023-06-26T04:09:22;14.88;;;10.05;;
77495;SDS011;66600;48.378;9.948;2023-06-26T04:11:47;16.05;;;9.95;;
77495;SDS011;66600;48.378;9.948;2023-06-26T04:14:13;15.23;;;9.52;;
77495;SDS011;66600;48.378;9.948;2023-06-26T04:16:38;14.80;;;9.40;;
77495;SDS011;66600;48.378;9.948;2023-06-26T04:19:03;15.00;;;10.00;;
77495;SDS011;66600;48.378;9.948;2023-06-26T04:21:30;15.18;;;9.85;;
77495;SDS011;66600;48.378;9.948;2023-06-26T04:23:55;16.63;;;10.30;;
77495;SDS011;66600;48.378;9.948;2023-06-26T04:26:20;14.77;;;9.02;;
77495;SDS011;66600;48.378;9.948;2023-06-26T04:28:46;13.63;;;8.38;;
77495;SDS011;66600;48.378;9.948;2023-06-26T04:31:11;15.30;;;9.63;;
77495;SDS011;66600;48.378;9.948;2023-06-26T04:33:36;14.57;;;9.63;;
77495;SDS011;66600;48.378;9.948;2023-06-26T04:36:03;15.77;;;8.68;;
77495;SDS011;66600;48.378;9.948;2023-06-26T04:38:29;14.45;;;8.85;;
77495;SDS011;66600;48.378;9.948;2023-06-26T04:40:55;14.98;;;9.25;;
77495;SDS011;66600;48.378;9.948;2023-06-26T04:43:20;13.75;;;9.10;;
77495;SDS011;66600;48.378;9.948;2023-06-26T04:45:46;14.93;;;8.93;;
77495;SDS011;66600;48.378;9.948;2023-06-26T04:48:11;12.88;;;8.70;;
77495;SDS011;66600;48.378;9.948;2023-06-26T04:50:37;13.32;;;9.18;;
77495;SDS011;66600;48.378;9.948;2023-06-26T04:53:02;13.15;;;9.20;;
77495;SDS011;66600;48.378;9.948;2023-06-26T04:55:27;14.43;;;9.10;;
77495;SDS011;66600;48.378;9.948;2023-06-26T04:57:53;13.70;;;9.25;;
77495;SDS011;66600;48.378;9.948;2023-06-26T05:00:18;14.60;;;9.07;;
77495;SDS011;66600;48.378;9.948;2023-06-26T05:02:44;14.82;;;9.48;;
77495;SDS011;66600;48.378;9.948;2023-06-26T05:05:10;13.68;;;8.82;;
77495;SDS011;66600;48.378;9.948;2023-06-26T05:07:35;14.60;;;9.05;;
77495;SDS011;66600;48.378;9.948;2023-06-26T05:10:01;13.30;;;9.07;;
77495;SDS011;66600;48.378;9.948;2023-06-26T05:12:26;14.43;;;9.50;;
77495;SDS011;66600;48.378;9.948;2023-06-26T05:14:51;13.05;;;9.25;;
77495;SDS011;66600;48.378;9.948;2023-06-26T05:17:17;15.52;;;9.50;;
77495;SDS011;66600;48.378;9.948;2023-06-26T05:19:42;12.85;;;9.02;;
77495;SDS011;66600;48.378;9.948;2023-06-26T05:22:07;13.98;;;9.25;;
77495;SDS011;66600;48.378;9.948;2023-06-26T05:24:34;13.93;;;9.13;;
77495;SDS011;66600;48.378;9.948;2023-06-26T05:27:00;14.55;;;9.80;;
77495;SDS011;66600;48.378;9.948;2023-06-26T05:29:26;17.02;;;9.63;;
77495;SDS011;66600;48.378;9.948;2023-06-26T05:31:52;13.95;;;9.32;;
77495;SDS011;66600;48.378;9.948;2023-06-26T05:34:18;16.20;;;9.35;;
77495;SDS011;66600;48.378;9.948;2023-06-26T05:36:45;14.35;;;9.10;;
77495;SDS011;66600;48.378;9.948;2023-06-26T05:39:13;16.10;;;9.48;;
77495;SDS011;66600;48.378;9.948;2023-06-26T05:41:39;14.55;;;9.60;;
77495;SDS011;66600;48.378;9.948;2023-06-26T05:44:04;13.90;;;9.52;;
77495;SDS011;66600;48.378;9.948;2023-06-26T05:46:30;15.57;;;9.60;;
77495;SDS011;66600;48.378;9.948;2023-06-26T05:48:55;13.15;;;9.30;;
77495;SDS011;66600;48.378;9.948;2023-06-26T05:51:21;14.30;;;9.80;;
77495;SDS011;66600;48.378;9.948;2023-06-26T05:53:46;14.13;;;9.63;;
77495;SDS011;66600;48.378;9.948;2023-06-26T05:56:12;13.45;;;9.23;;
77495;SDS011;66600;48.378;9.948;2023-06-26T05:58:37;12.60;;;9.35;;
77495;SDS011;66600;48.378;9.948;2023-06-26T06:01:03;13.13;;;9.50;;
77495;SDS011;66600;48.378;9.948;2023-06-26T06:03:28;14.43;;;9.60;;
77495;SDS011;66600;48.378;9.948;2023-06-26T06:05:54;13.82;;;9.15;;
77495;SDS011;66600;48.378;9.948;2023-06-26T06:08:19;14.90;;;9.27;;
77495;SDS011;66600;48.378;9.948;2023-06-26T06:10:44;13.27;;;9.52;;
77495;SDS011;66600;48.378;9.948;2023-06-26T06:13:10;15.35;;;9.48;;
77495;SDS011;66600;48.378;9.948;2023-06-26T06:15:35;12.45;;;9.05;;
77495;SDS011;66600;48.378;9.948;2023-06-26T06:18:00;14.93;;;9.93;;
77495;SDS011;66600;48.378;9.948;2023-06-26T06:20:26;16.60;;;9.95;;
77495;SDS011;66600;48.378;9.948;2023-06-26T06:22:51;13.98;;;9.98;;
77495;SDS011;66600;48.378;9.948;2023-06-26T06:25:16;14.43;;;9.80;;
77495;SDS011;66600;48.378;9.948;2023-06-26T06:27:42;13.43;;;10.13;;
77495;SDS011;66600;48.378;9.948;2023-06-26T06:30:08;15.20;;;10.50;;
77495;SDS011;66600;48.378;9.948;2023-06-26T06:32:34;14.60;;;10.18;;
77495;SDS011;66600;48.378;9.948;2023-06-26T06:34:59;16.42;;;9.52;;
77495;SDS011;66600;48.378;9.948;2023-06-26T06:37:28;13.02;;;9.20;;
77495;SDS011;66600;48.378;9.948;2023-06-26T06:39:56;12.82;;;8.85;;
77495;SDS011;66600;48.378;9.948;2023-06-26T06:42:21;15.00;;;9.95;;
77495;SDS011;66600;48.378;9.948;2023-06-26T06:44:46;13.35;;;9.38;;
77495;SDS011;66600;48.378;9.948;2023-06-26T06:47:12;17.60;;;10.13;;
77495;SDS011;66600;48.378;9.948;2023-06-26T06:49:37;13.63;;;9.77;;
77495;SDS011;66600;48.378;9.948;2023-06-26T06:52:03;15.50;;;9.75;;
77495;SDS011;66600;48.378;9.948;2023-06-26T06:54:28;13.23;;;9.20;;
77495;SDS011;66600;48.378;9.948;2023-06-26T06:56:54;14.32;;;10.00;;
77495;SDS011;66600;48.378;9.948;2023-06-26T06:59:19;14.38;;;10.15;;
77495;SDS011;66600;48.378;9.948;2023-06-26T07:01:44;13.48;;;9.40;;
77495;SDS011;66600;48.378;9.948;2023-06-26T07:04:09;13.52;;;9.40;;
77495;SDS011;66600;48.378;9.948;2023-06-26T07:06:35;14.85;;;9.18;;
77495;SDS011;66600;48.378;9.948;2023-06-26T07:09:00;13.10;;;9.18;;
77495;SDS011;66600;48.378;9.948;2023-06-26T07:11:26;13.27;;;9.05;;
77495;SDS011;66600;48.378;9.948;2023-06-26T07:13:51;13.65;;;9.60;;
77495;SDS011;66600;48.378;9.948;2023-06-26T07:16:16;13.02;;;9.25;;
77495;SDS011;66600;48.378;9.948;2023-06-26T07:18:42;12.23;;;9.23;;
77495;SDS011;66600;48.378;9.948;2023-06-26T07:21:08;12.80;;;9.55;;
77495;SDS011;66600;48.378;9.948;2023-06-26T07:23:33;18.15;;;9.75;;
77495;SDS011;66600;48.378;9.948;2023-06-26T07:25:59;11.07;;;8.35;;
77495;SDS011;66600;48.378;9.948;2023-06-26T07:28:24;13.35;;;8.90;;
77495;SDS011;66600;48.378;9.948;2023-06-26T07:30:49;14.35;;;8.70;;
77495;SDS011;66600;48.378;9.948;2023-06-26T07:33:15;11.32;;;8.23;;
77495;SDS011;66600;48.378;9.948;2023-06-26T07:35:40;11.90;;;8.50;;
77495;SDS011;66600;48.378;9.948;2023-06-26T07:38:05;12.15;;;8.75;;
77495;SDS011;66600;48.378;9.948;2023-06-26T07:40:30;13.35;;;8.15;;
77495;SDS011;66600;48.378;9.948;2023-06-26T07:42:56;10.75;;;7.88;;
77495;SDS011;66600;48.378;9.948;2023-06-26T07:45:23;10.77;;;8.07;;
77495;SDS011;66600;48.378;9.948;2023-06-26T07:47:48;12.20;;;8.18;;
77495;SDS011;66600;48.378;9.948;2023-06-26T07:50:13;11.82;;;8.38;;
77495;SDS011;66600;48.378;9.948;2023-06-26T07:52:44;10.30;;;7.97;;
77495;SDS011;66600;48.378;9.948;2023-06-26T07:55:09;12.38;;;8.18;;
77495;SDS011;66600;48.378;9.948;2023-06-26T07:57:35;9.88;;;7.78;;
77495;SDS011;66600;48.378;9.948;2023-06-26T08:00:00;9.30;;;7.20;;
77495;SDS011;66600;48.378;9.948;2023-06-26T08:02:26;11.13;;;7.47;;
77495;SDS011;66600;48.378;9.948;2023-06-26T08:04:51;11.38;;;7.82;;
77495;SDS011;66600;48.378;9.948;2023-06-26T08:07:16;10.95;;;7.40;;
77495;SDS011;66600;48.378;9.948;2023-06-26T08:09:41;9.75;;;7.25;;
77495;SDS011;66600;48.378;9.948;2023-06-26T08:12:07;9.57;;;7.45;;
77495;SDS011;66600;48.378;9.948;2023-06-26T08:14:32;12.73;;;7.47;;
77495;SDS011;66600;48.378;9.948;2023-06-26T08:16:58;8.60;;;7.00;;
77495;SDS011;66600;48.378;9.948;2023-06-26T08:19:24;8.70;;;6.80;;
77495;SDS011;66600;48.378;9.948;2023-06-26T08:21:50;8.70;;;6.90;;
77495;SDS011;66600;48.378;9.948;2023-06-26T08:24:15;8.68;;;6.95;;
77495;SDS011;66600;48.378;9.948;2023-06-26T08:26:44;9.55;;;7.47;;
77495;SDS011;66600;48.378;9.948;2023-06-26T08:29:10;10.60;;;6.95;;
77495;SDS011;66600;48.378;9.948;2023-06-26T08:31:36;10.75;;;7.40;;
77495;SDS011;66600;48.378;9.948;2023-06-26T08:34:02;9.00;;;6.97;;
77495;SDS011;66600;48.378;9.948;2023-06-26T08:36:29;11.80;;;7.47;;
77495;SDS011;66600;48.378;9.948;2023-06-26T08:38:54;10.07;;;7.20;;
77495;SDS011;66600;48.378;9.948;2023-06-26T08:41:19;8.77;;;6.85;;
77495;SDS011;66600;48.378;9.948;2023-06-26T08:43:45;9.00;;;7.05;;
77495;SDS011;66600;48.378;9.948;2023-06-26T08:46:10;9.70;;;7.00;;
77495;SDS011;66600;48.378;9.948;2023-06-26T08:48:35;8.40;;;6.75;;
77495;SDS011;66600;48.378;9.948;2023-06-26T08:51:05;7.57;;;6.32;;
77495;SDS011;66600;48.378;9.948;2023-06-26T08:53:57;8.85;;;6.82;;
77495;SDS011;66600;48.378;9.948;2023-06-26T08:56:27;9.48;;;6.72;;
77495;SDS011;66600;48.378;9.948;2023-06-26T08:58:56;9.55;;;6.70;;
77495;SDS011;66600;48.378;9.948;2023-06-26T09:01:21;7.93;;;6.50;;
77495;SDS011;66600;48.378;9.948;2023-06-26T09:03:49;8.60;;;6.38;;
77495;SDS011;66600;48.378;9.948;2023-06-26T09:06:14;8.27;;;6.18;;
77495;SDS011;66600;48.378;9.948;2023-06-26T09:08:40;8.52;;;6.47;;
77495;SDS011;66600;48.378;9.948;2023-06-26T09:11:05;7.22;;;6.20;;
77495;SDS011;66600;48.378;9.948;2023-06-26T09:13:30;7.63;;;6.25;;
77495;SDS011;66600;48.378;9.948;2023-06-26T09:15:56;7.95;;;6.18;;
77495;SDS011;66600;48.378;9.948;2023-06-26T09:18:22;8.02;;;5.78;;
77495;SDS011;66600;48.378;9.948;2023-06-26T09:20:48;7.80;;;6.55;;
77495;SDS011;66600;48.378;9.948;2023-06-26T09:23:13;7.28;;;5.90;;
77495;SDS011;66600;48.378;9.948;2023-06-26T09:25:39;9.88;;;6.03;;
77495;SDS011;66600;48.378;9.948;2023-06-26T09:28:05;7.82;;;6.00;;
77495;SDS011;66600;48.378;9.948;2023-06-26T09:30:34;7.43;;;6.13;;
77495;SDS011;66600;48.378;9.948;2023-06-26T09:33:14;8.10;;;6.30;;
77495;SDS011;66600;48.378;9.948;2023-06-26T09:35:40;9.40;;;6.32;;
77495;SDS011;66600;48.378;9.948;2023-06-26T09:38:06;8.10;;;5.00;;
77495;SDS011;66600;48.378;9.948;2023-06-26T09:40:32;7.85;;;5.03;;
77495;SDS011;66600;48.378;9.948;2023-06-26T09:43:03;6.63;;;5.40;;
77495;SDS011;66600;48.378;9.948;2023-06-26T09:45:39;6.05;;;4.78;;
77495;SDS011;66600;48.378;9.948;2023-06-26T09:48:05;5.75;;;4.75;;
77495;SDS011;66600;48.378;9.948;2023-06-26T09:50:33;6.18;;;4.88;;
77495;SDS011;66600;48.378;9.948;2023-06-26T09:53:10;6.53;;;5.05;;
77495;SDS011;66600;48.378;9.948;2023-06-26T09:55:40;6.97;;;5.13;;
77495;SDS011;66600;48.378;9.948;2023-06-26T09:58:09;6.20;;;4.65;;
77495;SDS011;66600;48.378;9.948;2023-06-26T10:00:39;6.82;;;5.10;;
77495;SDS011;66600;48.378;9.948;2023-06-26T10:03:08;5.97;;;4.88;;
77495;SDS011;66600;48.378;9.948;2023-06-26T10:05:34;6.55;;;4.97;;
77495;SDS011;66600;48.378;9.948;2023-06-26T10:08:00;6.40;;;5.13;;
77495;SDS011;66600;48.378;9.948;2023-06-26T10:10:27;6.03;;;4.97;;
77495;SDS011;66600;48.378;9.948;2023-06-26T10:12:54;7.05;;;4.72;;
77495;SDS011;66600;48.378;9.948;2023-06-26T10:15:26;6.38;;;4.80;;
77495;SDS011;66600;48.378;9.948;2023-06-26T10:17:54;6.27;;;4.93;;
77495;SDS011;66600;48.378;9.948;2023-06-26T10:20:21;6.77;;;5.13;;
77495;SDS011;66600;48.378;9.948;2023-06-26T10:22:47;7.65;;;5.05;;
77495;SDS011;66600;48.378;9.948;2023-06-26T10:25:19;6.40;;;4.90;;
77495;SDS011;66600;48.378;9.948;2023-06-26T10:27:45;5.78;;;4.82;;
77495;SDS011;66600;48.378;9.948;2023-06-26T10:30:15;6.70;;;5.13;;
77495;SDS011;66600;48.378;9.948;2023-06-26T10:32:45;6.65;;;5.43;;
77495;SDS011;66600;48.378;9.948;2023-06-26T10:35:11;7.00;;;5.00;;
77495;SDS011;66600;48.378;9.948;2023-06-26T10:40:12;6.95;;;4.70;;
77495;SDS011;66600;48.378;9.948;2023-06-26T10:42:39;6.07;;;4.85;;
77495;SDS011;66600;48.378;9.948;2023-06-26T10:45:16;6.13;;;4.93;;
77495;SDS011;66600;48.378;9.948;2023-06-26T10:47:48;6.40;;;5.25;;
77495;SDS011;66600;48.378;9.948;2023-06-26T10:53:06;7.50;;;4.65;;
77495;SDS011;66600;48.378;9.948;2023-06-26T10:55:32;7.43;;;5.15;;
77495;SDS011;66600;48.378;9.948;2023-06-26T10:57:57;6.93;;;5.03;;
77495;SDS011;66600;48.378;9.948;2023-06-26T11:00:22;5.80;;;5.03;;
77495;SDS011;66600;48.378;9.948;2023-06-26T11:02:50;6.10;;;5.20;;
77495;SDS011;66600;48.378;9.948;2023-06-26T11:05:23;6.82;;;5.00;;
77495;SDS011;66600;48.378;9.948;2023-06-26T11:08:05;6.35;;;4.85;;
77495;SDS011;66600;48.378;9.948;2023-06-26T11:13:16;6.85;;;5.22;;
77495;SDS011;66600;48.378;9.948;2023-06-26T11:15:43;6.50;;;5.07;;
77495;SDS011;66600;48.378;9.948;2023-06-26T11:18:12;8.57;;;5.40;;
77495;SDS011;66600;48.378;9.948;2023-06-26T11:20:38;6.07;;;5.20;;
77495;SDS011;66600;48.378;9.948;2023-06-26T11:23:04;5.40;;;4.88;;
77495;SDS011;66600;48.378;9.948;2023-06-26T11:25:37;7.38;;;5.40;;
77495;SDS011;66600;48.378;9.948;2023-06-26T11:28:03;6.35;;;5.40;;
77495;SDS011;66600;48.378;9.948;2023-06-26T11:30:29;7.53;;;5.13;;
77495;SDS011;66600;48.378;9.948;2023-06-26T11:33:02;5.72;;;5.07;;
77495;SDS011;66600;48.378;9.948;2023-06-26T11:35:29;7.25;;;5.20;;
77495;SDS011;66600;48.378;9.948;2023-06-26T11:37:57;6.15;;;4.97;;
77495;SDS011;66600;48.378;9.948;2023-06-26T11:40:29;7.40;;;5.22;;
77495;SDS011;66600;48.378;9.948;2023-06-26T11:42:58;7.30;;;5.28;;
77495;SDS011;66600;48.378;9.948;2023-06-26T11:45:25;6.97;;;5.30;;
77495;SDS011;66600;48.378;9.948;2023-06-26T11:47:54;6.43;;;5.45;;
77495;SDS011;66600;48.378;9.948;2023-06-26T11:50:21;7.80;;;5.13;;
77495;SDS011;66600;48.378;9.948;2023-06-26T11:52:52;6.95;;;5.28;;
77495;SDS011;66600;48.378;9.948;2023-06-26T11:55:18;7.88;;;5.88;;
77495;SDS011;66600;48.378;9.948;2023-06-26T11:57:47;7.10;;;5.40;;
77495;SDS011;66600;48.378;9.948;2023-06-26T12:00:17;7.38;;;5.15;;
77495;SDS011;66600;48.378;9.948;2023-06-26T12:02:46;8.52;;;5.15;;
77495;SDS011;66600;48.378;9.948;2023-06-26T12:07:38;6.85;;;5.40;;
77495;SDS011;66600;48.378;9.948;2023-06-26T12:10:03;7.60;;;5.63;;
77495;SDS011;66600;48.378;9.948;2023-06-26T12:12:30;7.55;;;5.30;;
77495;SDS011;66600;48.378;9.948;2023-06-26T12:14:56;7.53;;;5.60;;
77495;SDS011;66600;48.378;9.948;2023-06-26T12:17:22;6.35;;;5.22;;
77495;SDS011;66600;48.378;9.948;2023-06-26T12:19:50;6.32;;;5.30;;
77495;SDS011;66600;48.378;9.948;2023-06-26T12:22:16;6.45;;;5.43;;
77495;SDS011;66600;48.378;9.948;2023-06-26T12:24:42;6.10;;;5.05;;
77495;SDS011;66600;48.378;9.948;2023-06-26T12:27:09;8.27;;;5.45;;
77495;SDS011;66600;48.378;9.948;2023-06-26T12:29:37;9.70;;;5.18;;
77495;SDS011;66600;48.378;9.948;2023-06-26T12:32:04;7.00;;;5.27;;
77495;SDS011;66600;48.378;9.948;2023-06-26T12:34:33;7.80;;;5.32;;
77495;SDS011;66600;48.378;9.948;2023-06-26T12:37:00;7.40;;;5.35;;
77495;SDS011;66600;48.378;9.948;2023-06-26T12:39:51;9.27;;;5.70;;
77495;SDS011;66600;48.378;9.948;2023-06-26T12:42:22;6.22;;;4.82;;
77495;SDS011;66600;48.378;9.948;2023-06-26T12:44:48;7.82;;;5.50;;
77495;SDS011;66600;48.378;9.948;2023-06-26T12:47:15;8.90;;;6.00;;
77495;SDS011;66600;48.378;9.948;2023-06-26T12:49:41;7.60;;;5.55;;
77495;SDS011;66600;48.378;9.948;2023-06-26T12:52:12;8.13;;;5.40;;
77495;SDS011;66600;48.378;9.948;2023-06-26T12:54:39;7.93;;;5.78;;
77495;SDS011;66600;48.378;9.948;2023-06-26T12:57:06;6.43;;;5.57;;
77495;SDS011;66600;48.378;9.948;2023-06-26T12:59:32;8.65;;;5.45;;
77495;SDS011;66600;48.378;9.948;2023-06-26T13:01:58;7.32;;;5.82;;
77495;SDS011;66600;48.378;9.948;2023-06-26T13:04:24;6.88;;;5.53;;
77495;SDS011;66600;48.378;9.948;2023-06-26T13:06:50;6.55;;;5.50;;
77495;SDS011;66600;48.378;9.948;2023-06-26T13:09:16;6.45;;;5.85;;
77495;SDS011;66600;48.378;9.948;2023-06-26T13:11:42;7.97;;;5.55;;
77495;SDS011;66600;48.378;9.948;2023-06-26T13:14:07;7.50;;;5.35;;
77495;SDS011;66600;48.378;9.948;2023-06-26T13:16:33;7.95;;;5.68;;
77495;SDS011;66600;48.378;9.948;2023-06-26T13:18:58;8.20;;;5.88;;
77495;SDS011;66600;48.378;9.948;2023-06-26T13:21:25;9.35;;;6.05;;
77495;SDS011;66600;48.378;9.948;2023-06-26T13:23:50;7.43;;;5.90;;
77495;SDS011;66600;48.378;9.948;2023-06-26T13:26:16;9.25;;;6.00;;
77495;SDS011;66600;48.378;9.948;2023-06-26T13:28:41;7.60;;;5.93;;
77495;SDS011;66600;48.378;9.948;2023-06-26T13:31:06;8.75;;;6.05;;
77495;SDS011;66600;48.378;9.948;2023-06-26T13:33:32;8.00;;;6.30;;
77495;SDS011;66600;48.378;9.948;2023-06-26T13:35:57;8.57;;;6.70;;
77495;SDS011;66600;48.378;9.948;2023-06-26T13:38:23;7.50;;;5.80;;
77495;SDS011;66600;48.378;9.948;2023-06-26T13:40:53;9.15;;;6.43;;
77495;SDS011;66600;48.378;9.948;2023-06-26T13:43:20;6.80;;;5.80;;
77495;SDS011;66600;48.378;9.948;2023-06-26T13:45:46;7.45;;;6.28;;
77495;SDS011;66600;48.378;9.948;2023-06-26T13:48:11;8.23;;;6.88;;
77495;SDS011;66600;48.378;9.948;2023-06-26T13:50:37;7.40;;;6.00;;
77495;SDS011;66600;48.378;9.948;2023-06-26T13:53:03;8.40;;;6.68;;
77495;SDS011;66600;48.378;9.948;2023-06-26T13:55:28;10.73;;;6.20;;
77495;SDS011;66600;48.378;9.948;2023-06-26T13:57:54;8.77;;;6.55;;
77495;SDS011;66600;48.378;9.948;2023-06-26T14:00:20;7.72;;;6.10;;
77495;SDS011;66600;48.378;9.948;2023-06-26T14:02:47;7.53;;;6.45;;
77495;SDS011;66600;48.378;9.948;2023-06-26T14:05:12;7.65;;;6.20;;
77495;SDS011;66600;48.378;9.948;2023-06-26T14:07:38;8.68;;;6.28;;
77495;SDS011;66600;48.378;9.948;2023-06-26T14:10:04;8.93;;;6.32;;
77495;SDS011;66600;48.378;9.948;2023-06-26T14:12:33;7.15;;;5.88;;
77495;SDS011;66600;48.378;9.948;2023-06-26T14:14:59;9.68;;;5.97;;
77495;SDS011;66600;48.378;9.948;2023-06-26T14:17:25;7.50;;;6.22;;
77495;SDS011;66600;48.378;9.948;2023-06-26T14:19:51;6.53;;;5.82;;
77495;SDS011;66600;48.378;9.948;2023-06-26T14:22:17;7.50;;;6.40;;
77495;SDS011;66600;48.378;9.948;2023-06-26T14:24:42;7.57;;;6.55;;
77495;SDS011;66600;48.378;9.948;2023-06-26T14:27:07;7.20;;;6.22;;
77495;SDS011;66600;48.378;9.948;2023-06-26T14:29:33;7.03;;;6.10;;
77495;SDS011;66600;48.378;9.948;2023-06-26T14:31:58;8.88;;;6.40;;
77495;SDS011;66600;48.378;9.948;2023-06-26T14:34:23;7.72;;;6.72;;
77495;SDS011;66600;48.378;9.948;2023-06-26T14:36:49;8.25;;;6.10;;
77495;SDS011;66600;48.378;9.948;2023-06-26T14:39:14;8.07;;;6.47;;
77495;SDS011;66600;48.378;9.948;2023-06-26T14:41:39;9.80;;;6.38;;
77495;SDS011;66600;48.378;9.948;2023-06-26T14:44:06;7.85;;;6.60;;
77495;SDS011;66600;48.378;9.948;2023-06-26T14:46:34;8.10;;;6.75;;
77495;SDS011;66600;48.378;9.948;2023-06-26T14:49:00;8.05;;;6.63;;
77495;SDS011;66600;48.378;9.948;2023-06-26T14:51:25;8.57;;;6.82;;
77495;SDS011;66600;48.378;9.948;2023-06-26T14:53:51;8.27;;;6.45;;
77495;SDS011;66600;48.378;9.948;2023-06-26T14:56:16;8.55;;;6.72;;